Time;durP1;ratioP1;P1;durP2;ratioP2;P2;SDS_P1;SDS_P2;PMS_P1;PMS_P2;Temp;Humidity;BMP_temperature;BMP_pressure;BME280_temperature;BME280_humidity;BME280_pressure;Samples;Min_cycle;Max_cycle;Signal;HPM_P1;HPM_P2
2022/12/23 20:48:46;;;;;;;23.87;11.83;;;;;;;2.26;100.00;100298.35;1741946;81;21057;-59
2022/12/23 20:51:16;;;;;;;24.15;11.35;;;;;;;2.28;100.00;100301.63;1741795;81;21499;-58
2022/12/23 20:53:44;;;;;;;19.75;9.90;;;;;;;2.29;100.00;100302.44;1741002;82;21000;-59
2022/12/23 20:56:16;;;;;;;22.00;11.40;;;;;;;2.30;100.00;100302.77;1741146;82;21076;-60
2022/12/23 20:58:56;;;;;;;;;;;;;;;2.29;100.00;100298.58;1744354;82;21236;-59
2022/12/23 21:01:38;;;;;;;21.10;10.75;;;;;;;2.30;100.00;100298.91;1741464;81;20171;-59
2022/12/23 21:04:07;;;;;;;21.68;11.73;;;;;;;2.28;100.00;100296.48;1741248;81;20952;-60
2022/12/23 21:06:34;;;;;;;23.02;12.30;;;;;;;2.28;100.00;100296.48;1741859;82;20984;-59
2022/12/23 21:09:03;;;;;;;20.17;11.43;;;;;;;2.29;100.00;100302.44;1741340;82;20925;-61
2022/12/23 21:11:34;;;;;;;24.82;13.00;;;;;;;2.27;100.00;100300.45;1741809;81;21322;-59
2022/12/23 21:14:04;;;;;;;25.60;12.63;;;;;;;2.26;100.00;100298.83;1741258;82;21514;-59
2022/12/23 21:16:31;;;;;;;22.87;12.47;;;;;;;2.22;100.00;100292.31;1741720;81;21080;-59
2022/12/23 21:18:58;;;;;;;24.40;11.22;;;;;;;2.22;100.00;100291.02;1741217;82;21551;-61
2022/12/23 21:21:26;;;;;;;25.65;12.55;;;;;;;2.22;100.00;100292.31;1741538;82;21852;-59
2022/12/23 21:23:55;;;;;;;23.75;12.50;;;;;;;2.22;100.00;100284.59;1741338;81;21216;-63
2022/12/23 21:26:24;;;;;;;26.10;12.63;;;;;;;2.21;100.00;100287.64;1741524;82;21369;-59
2022/12/23 21:28:52;;;;;;;25.70;12.58;;;;;;;2.22;100.00;100284.59;1741276;82;21009;-63
2022/12/23 21:31:21;;;;;;;25.27;12.93;;;;;;;2.22;100.00;100289.73;1741914;81;21190;-59
2022/12/23 21:33:49;;;;;;;24.30;12.75;;;;;;;2.23;100.00;100295.22;1742025;82;21599;-62
2022/12/23 21:36:20;;;;;;;25.72;13.08;;;;;;;2.23;100.00;100291.36;1741350;82;21708;-59
2022/12/23 21:38:48;;;;;;;23.45;12.30;;;;;;;2.23;100.00;100302.94;1740705;81;21518;-63
2022/12/23 21:41:22;;;;;;;20.57;11.45;;;;;;;2.22;100.00;100291.84;1741538;81;21023;-59
2022/12/23 21:43:50;;;;;;;25.30;12.85;;;;;;;2.22;100.00;100300.03;1741193;81;21003;-63
2022/12/23 21:48:55;;;;;;;22.62;11.33;;;;;;;2.20;100.00;100293.73;1741177;82;21705;-60
2022/12/23 21:51:31;;;;;;;22.93;12.00;;;;;;;2.19;100.00;100288.23;1741741;82;21079;-60
2022/12/23 21:53:59;;;;;;;23.00;11.63;;;;;;;2.19;100.00;100293.38;1741678;81;21043;-60
2022/12/23 21:56:29;;;;;;;23.10;13.22;;;;;;;2.19;100.00;100292.89;1741578;81;21049;-64
2022/12/23 21:59:03;;;;;;;22.80;12.65;;;;;;;2.18;100.00;100292.56;1741974;81;21076;-59
2022/12/23 22:01:51;;;;;;;22.67;13.00;;;;;;;2.17;100.00;100292.23;1743419;79;21278;31
2022/12/23 22:04:18;;;;;;;24.45;12.73;;;;;;;2.15;100.00;100284.28;1711514;83;21006;-63
2022/12/23 22:06:45;;;;;;;26.12;13.28;;;;;;;2.14;100.00;100289.91;1712762;83;21081;-59
2022/12/23 22:09:16;;;;;;;23.15;13.03;;;;;;;2.13;100.00;100287.47;1712542;83;21109;-60
2022/12/23 22:11:44;;;;;;;27.20;12.85;;;;;;;2.13;100.00;100289.57;1713079;83;21006;-60
2022/12/23 22:14:13;;;;;;;24.00;13.22;;;;;;;2.14;100.00;100292.48;1712494;83;21259;-64
2022/12/23 22:16:40;;;;;;;25.27;13.48;;;;;;;2.13;100.00;100290.86;1712632;83;22449;-60
2022/12/23 22:19:08;;;;;;;26.45;13.50;;;;;;;2.13;100.00;100288.76;1712875;83;20948;-60
2022/12/23 22:21:36;;;;;;;28.02;12.33;;;;;;;2.10;100.00;100287.25;1684424;85;20983;-59
2022/12/23 22:24:03;;;;;;;26.80;14.45;;;;;;;2.10;100.00;100284.67;1712797;83;20961;-60
2022/12/23 22:26:31;;;;;;;22.10;13.03;;;;;;;2.08;100.00;100286.55;1711627;83;21172;-64
2022/12/23 22:29:00;;;;;;;22.55;12.98;;;;;;;2.07;100.00;100290.06;1712461;83;21022;-59
2022/12/23 22:31:38;;;;;;;22.70;12.53;;;;;;;2.06;100.00;100287.63;1712763;83;20975;-61
2022/12/23 22:34:05;;;;;;;27.22;13.62;;;;;;;2.05;100.00;100285.54;1711616;83;21429;-63
2022/12/23 22:36:33;;;;;;;22.80;13.30;;;;;;;2.04;100.00;100283.08;1712790;83;22141;-61
2022/12/23 22:39:01;;;;;;;25.00;13.38;;;;;;;2.03;100.00;100277.13;1712326;83;21280;-60
2022/12/23 22:41:29;;;;;;;24.60;13.45;;;;;;;2.03;100.00;100277.13;1712287;83;21606;-58
2022/12/23 22:43:56;;;;;;;20.52;12.13;;;;;;;2.03;100.00;100275.84;1711675;83;20979;-60
2022/12/23 22:46:24;;;;;;;23.75;13.75;;;;;;;2.05;100.00;100274.44;1711670;83;21394;-60
2022/12/23 22:48:51;;;;;;;22.35;13.08;;;;;;;2.06;100.00;100276.88;1712193;83;21523;-58
2022/12/23 22:51:21;;;;;;;24.18;13.62;;;;;;;2.08;100.00;100278.83;1712300;83;21228;-58
2022/12/23 22:53:48;;;;;;;26.42;13.53;;;;;;;2.09;100.00;100275.81;1712510;83;21578;-58
2022/12/23 22:56:17;;;;;;;24.35;13.83;;;;;;;2.10;100.00;100271.01;1711791;83;21536;-62
2022/12/23 22:58:44;;;;;;;27.13;15.03;;;;;;;2.10;100.00;100272.30;1708643;83;21383;-59
2022/12/23 23:01:26;;;;;;;26.82;13.95;;;;;;;2.11;100.00;100267.48;1684054;85;20991;-59
2022/12/23 23:03:57;;;;;;;23.18;13.35;;;;;;;2.10;100.00;100268.44;1711843;83;21793;-63
2022/12/23 23:06:29;;;;;;;23.27;12.88;;;;;;;2.10;100.00;100269.25;1713148;83;21468;-59
2022/12/23 23:08:56;;;;;;;;;;;;;;;2.09;100.00;100265.05;1715333;83;20999;-60
2022/12/23 23:11:25;;;;;;;25.30;14.95;;;;;;;2.09;100.00;100265.53;1684125;85;20119;-59
2022/12/23 23:13:53;;;;;;;26.17;14.15;;;;;;;2.08;100.00;100263.41;1712884;83;21508;-64
2022/12/23 23:16:20;;;;;;;24.25;14.20;;;;;;;2.08;100.00;100263.87;1707720;83;21599;-60
2022/12/23 23:18:47;;;;;;;25.35;13.75;;;;;;;2.07;100.00;100266.92;1712726;83;21583;-60
2022/12/23 23:21:14;;;;;;;24.82;14.00;;;;;;;2.09;100.00;100264.24;1712789;83;21372;-59
2022/12/23 23:23:43;;;;;;;26.57;14.58;;;;;;;2.11;100.00;100267.01;1712589;83;20971;-58
2022/12/23 23:26:11;;;;;;;27.70;14.03;;;;;;;2.13;100.00;100263.86;1711766;83;21007;-62
2022/12/23 23:28:38;;;;;;;26.52;13.60;;;;;;;2.15;100.00;100263.72;1711969;83;21129;-59
2022/12/23 23:31:07;;;;;;;25.95;14.15;;;;;;;2.14;100.00;100266.76;1712380;83;21051;-59
2022/12/23 23:33:34;;;;;;;27.20;15.32;;;;;;;2.13;100.00;100268.19;1712738;83;21449;-59
2022/12/23 23:36:01;;;;;;;24.92;14.43;;;;;;;2.11;100.00;100270.87;1712769;83;20983;-59
2022/12/23 23:38:29;;;;;;;29.63;16.50;;;;;;;2.13;100.00;100273.33;1711816;83;21089;-62
2022/12/23 23:40:56;;;;;;;26.37;14.13;;;;;;;2.13;100.00;100271.56;1712615;83;21065;-58
2022/12/23 23:43:23;;;;;;;25.17;14.60;;;;;;;2.15;100.00;100268.86;1712803;83;20986;-59
2022/12/23 23:46:00;;;;;;;27.15;15.45;;;;;;;2.16;100.00;100266.17;1684368;83;21119;-59
2022/12/23 23:48:27;;;;;;;26.77;14.73;;;;;;;2.19;100.00;100269.75;1711714;83;21000;-62
2022/12/23 23:51:04;;;;;;;24.20;13.78;;;;;;;2.22;100.00;100270.45;1712450;83;21081;-59
2022/12/23 23:53:32;;;;;;;25.00;14.50;;;;;;;2.22;100.00;100267.41;1712099;83;21822;-60
2022/12/23 23:56:04;;;;;;;23.65;14.33;;;;;;;2.24;100.00;100266.01;1712816;83;20986;-59
2022/12/23 23:58:33;;;;;;;26.33;13.93;;;;;;;2.25;100.00;100262.48;1712272;83;20960;-60
